Time;durP1;ratioP1;P1;durP2;ratioP2;P2;SDS_P1;SDS_P2;PMS_P1;PMS_P2;Temp;Humidity;BMP_temperature;BMP_pressure;BME280_temperature;BME280_humidity;BME280_pressure;Samples;Min_cycle;Max_cycle;Signal;HPM_P1;HPM_P2
2023/03/13 00:01:49;;;;;;;0.45;0.03;;;;;;;-5.02;56.70;100303.00;4989569;28;20046;-72
2023/03/13 00:04:16;;;;;;;1.05;0.20;;;;;;;-5.02;56.95;100302.13;4991339;28;20415;-73
2023/03/13 00:06:45;;;;;;;3.22;0.30;;;;;;;-5.04;57.01;100291.00;4991837;28;20046;-72
2023/03/13 00:09:14;;;;;;;1.55;0.10;;;;;;;-5.04;56.44;100298.66;4991545;28;20061;-73
2023/03/13 00:11:41;;;;;;;2.83;0.10;;;;;;;-5.06;56.54;100306.25;4988429;28;20058;-72
2023/03/13 00:14:09;;;;;;;1.05;0.15;;;;;;;-5.07;56.91;100296.00;4984424;28;20055;-72
2023/03/13 00:16:38;;;;;;;0.00;0.00;;;;;;;-5.08;57.15;100301.91;4990480;28;20053;-72
2023/03/13 00:19:05;;;;;;;0.30;0.10;;;;;;;-5.11;56.36;100301.81;4989398;28;20058;-72
2023/03/13 00:21:33;;;;;;;1.65;0.10;;;;;;;-5.14;56.73;100309.31;4989442;28;20092;-73
2023/03/13 00:24:01;;;;;;;1.33;0.80;;;;;;;-5.15;56.38;100315.22;4989695;28;20054;-72
2023/03/13 00:26:29;;;;;;;0.32;0.10;;;;;;;-5.20;56.61;100315.91;4987991;28;20058;-72
2023/03/13 00:28:56;;;;;;;0.90;0.10;;;;;;;-5.17;56.30;100316.84;4988467;28;20050;-72
2023/03/13 00:31:25;;;;;;;1.00;0.10;;;;;;;-5.19;56.44;100319.34;4989385;28;20046;-72
2023/03/13 00:33:53;;;;;;;0.20;0.10;;;;;;;-5.22;56.62;100312.44;4988306;28;20050;-72
2023/03/13 00:36:23;;;;;;;0.47;0.10;;;;;;;-5.22;56.60;100317.53;4989276;28;20461;-72
2023/03/13 00:38:50;;;;;;;0.65;0.10;;;;;;;-5.25;56.34;100312.31;4978936;28;20051;-73
2023/03/13 00:41:19;;;;;;;0.20;0.08;;;;;;;-5.26;56.90;100312.28;4989426;28;20050;-72
2023/03/13 00:43:47;;;;;;;0.57;0.10;;;;;;;-5.28;57.39;100302.03;4989395;28;20042;-72
2023/03/13 00:46:17;;;;;;;0.43;0.13;;;;;;;-5.30;57.23;100306.19;4991907;28;20093;-72
2023/03/13 00:48:44;;;;;;;2.35;0.10;;;;;;;-5.31;57.25;100309.56;4988131;28;20513;-72
2023/03/13 00:51:11;;;;;;;0.30;0.10;;;;;;;-5.33;56.75;100311.16;4991408;28;20421;-72
2023/03/13 00:53:38;;;;;;;1.45;0.10;;;;;;;-5.34;57.14;100317.09;4987842;28;20502;-73
2023/03/13 00:56:07;;;;;;;0.00;0.00;;;;;;;-5.37;57.24;100311.00;4990320;28;20501;-72
2023/03/13 00:58:38;;;;;;;1.45;0.00;;;;;;;-5.40;56.89;100305.81;4986599;28;20046;-72
2023/03/13 01:01:09;;;;;;;0.52;0.10;;;;;;;-5.40;57.12;100299.03;4987648;28;20492;-72
2023/03/13 01:03:38;;;;;;;1.65;0.10;;;;;;;-5.43;56.90;100289.59;4990046;28;20077;-73
2023/03/13 01:06:06;;;;;;;0.30;0.10;;;;;;;-5.50;56.99;100279.13;4991183;28;20046;-72
2023/03/13 01:08:33;;;;;;;0.10;0.10;;;;;;;-5.49;57.03;100283.41;4988240;28;20051;-72
2023/03/13 01:11:02;;;;;;;0.50;0.10;;;;;;;-5.48;56.75;100280.91;4986022;28;20514;-72
2023/03/13 01:13:29;;;;;;;0.57;0.05;;;;;;;-5.52;57.45;100270.56;4982770;28;20047;-72
2023/03/13 01:15:57;;;;;;;0.55;0.47;;;;;;;-5.54;57.30;100270.50;4985162;28;20059;-72
2023/03/13 01:18:24;;;;;;;0.10;0.10;;;;;;;-5.54;57.06;100267.09;4980637;28;20046;-72
2023/03/13 01:20:51;;;;;;;0.98;0.13;;;;;;;-5.56;57.58;100273.81;4985822;28;20057;-72
2023/03/13 01:23:18;;;;;;;0.20;0.10;;;;;;;-5.58;57.61;100267.78;4985187;28;20133;-72
2023/03/13 01:25:45;;;;;;;0.32;0.08;;;;;;;-5.61;57.40;100258.34;4989533;28;20413;-72
2023/03/13 01:28:12;;;;;;;1.35;0.00;;;;;;;-5.63;57.58;100256.56;4989045;28;20522;-72
2023/03/13 01:30:39;;;;;;;1.35;0.10;;;;;;;-5.65;57.07;100253.97;4982405;28;20414;-72
2023/03/13 01:33:07;;;;;;;0.52;0.10;;;;;;;-5.67;56.90;100237.78;4987351;28;20054;-72
2023/03/13 01:35:34;;;;;;;1.42;0.15;;;;;;;-5.68;57.20;100243.69;4981773;28;20050;-72
2023/03/13 01:38:01;;;;;;;0.38;0.10;;;;;;;-5.70;57.39;100241.06;4987129;28;20046;-72
2023/03/13 01:40:28;;;;;;;0.10;0.10;;;;;;;-5.72;57.63;100242.69;4987306;28;20053;-72
2023/03/13 01:42:57;;;;;;;1.50;0.10;;;;;;;-5.73;57.69;100245.16;4988780;28;20434;-72
2023/03/13 01:46:03;;;;;;;0.13;0.10;;;;;;;-5.75;56.95;100237.50;4988175;28;20046;-72
2023/03/13 01:48:40;;;;;;;0.88;0.10;;;;;;;-5.79;57.47;100228.00;4979939;28;20062;-72
2023/03/13 01:51:10;;;;;;;0.65;0.10;;;;;;;-5.81;57.17;100229.59;4986372;28;20809;-72
2023/03/13 01:53:42;;;;;;;0.73;0.10;;;;;;;-5.83;56.97;100223.63;4987111;28;20049;-72
2023/03/13 01:56:15;;;;;;;1.50;0.10;;;;;;;-5.84;57.18;100224.41;4987613;28;20054;-72
2023/03/13 01:58:42;;;;;;;0.52;0.10;;;;;;;-5.87;57.64;100220.06;4988237;28;20773;-72
2023/03/13 02:01:09;;;;;;;0.45;0.10;;;;;;;-5.91;57.91;100220.75;4987246;28;20420;-72
2023/03/13 02:03:38;;;;;;;0.10;0.00;;;;;;;-5.90;57.27;100226.72;4986305;28;20047;-72
2023/03/13 02:06:09;;;;;;;2.33;0.10;;;;;;;-5.92;57.02;100225.78;4988576;28;20042;-72
2023/03/13 02:08:41;;;;;;;0.15;0.00;;;;;;;-5.96;57.81;100214.66;4984157;28;20488;-72
2023/03/13 02:11:19;;;;;;;0.10;0.00;;;;;;;-5.99;57.90;100224.72;4985410;28;20053;-72
2023/03/13 02:13:47;;;;;;;0.10;0.10;;;;;;;-6.01;57.66;100216.16;4986055;28;20039;-72
2023/03/13 02:16:14;;;;;;;0.35;0.10;;;;;;;-6.07;57.38;100204.88;4987505;28;20061;-72
2023/03/13 02:18:43;;;;;;;1.58;0.30;;;;;;;-6.06;57.36;100211.69;4984282;28;20411;-72
2023/03/13 02:21:16;;;;;;;0.10;0.10;;;;;;;-6.07;57.50;100207.44;4985798;28;20046;-72
2023/03/13 02:23:53;;;;;;;0.98;0.08;;;;;;;-6.08;57.39;100203.16;4983691;28;20050;-72
2023/03/13 02:26:22;;;;;;;2.70;0.10;;;;;;;-6.13;57.91;100198.75;4987291;28;20061;-72
2023/03/13 02:28:49;;;;;;;0.68;0.00;;;;;;;-6.12;57.62;100205.59;4983429;28;20050;-72
2023/03/13 02:31:16;;;;;;;0.15;0.00;;;;;;;-6.17;57.54;100194.38;4986733;28;20050;-72
2023/03/13 02:33:44;;;;;;;0.47;0.17;;;;;;;-6.17;57.63;100193.50;4987048;28;20054;-72
2023/03/13 02:36:13;;;;;;;1.20;0.13;;;;;;;-6.19;57.92;100183.25;4985017;28;20054;-72
2023/03/13 02:38:47;;;;;;;2.20;0.10;;;;;;;-6.22;58.03;100180.59;4984437;28;20046;-72
2023/03/13 02:41:15;;;;;;;0.60;0.10;;;;;;;-6.23;57.72;100188.16;4985043;28;20051;-72
2023/03/13 02:43:43;;;;;;;0.20;0.10;;;;;;;-6.25;57.54;100190.66;4985424;28;20077;-72
2023/03/13 02:46:13;;;;;;;0.15;0.10;;;;;;;-6.27;57.71;100194.78;4985968;28;20050;-72
2023/03/13 02:48:42;;;;;;;0.10;0.10;;;;;;;-6.28;58.21;100198.16;4983544;28;20050;-72
2023/03/13 02:51:16;;;;;;;0.10;0.10;;;;;;;-6.31;57.87;100198.03;4981676;28;20050;-72
2023/03/13 02:53:44;;;;;;;1.95;0.10;;;;;;;-6.41;57.50;100184.06;4984906;28;20050;-72
2023/03/13 02:56:14;;;;;;;1.05;0.08;;;;;;;-6.35;57.55;100203.78;4983516;28;20404;-72
2023/03/13 02:58:43;;;;;;;0.20;0.10;;;;;;;-6.38;57.87;100207.06;4987859;28;20047;-72
2023/03/13 03:01:10;;;;;;;0.10;0.10;;;;;;;-6.39;57.46;100209.56;4981979;28;20487;-72
2023/03/13 03:03:37;;;;;;;0.47;0.10;;;;;;;-6.42;58.34;100201.81;4984873;28;20050;-72
2023/03/13 03:06:06;;;;;;;0.40;0.00;;;;;;;-6.44;58.39;100203.41;4982597;28;20042;-72
2023/03/13 03:08:34;;;;;;;1.13;0.10;;;;;;;-6.44;57.46;100193.25;4956795;28;20053;-73
2023/03/13 03:11:01;;;;;;;0.65;0.10;;;;;;;-6.46;57.99;100194.84;4985736;28;20050;-72
2023/03/13 03:13:28;;;;;;;4.22;0.10;;;;;;;-6.49;57.67;100192.19;4984306;28;20056;-72
2023/03/13 03:15:56;;;;;;;0.20;0.10;;;;;;;-6.50;57.86;100193.00;4987606;28;20060;-72
2023/03/13 03:18:23;;;;;;;0.10;0.10;;;;;;;-6.50;58.08;100196.41;4978134;28;20057;-72
2023/03/13 03:20:50;;;;;;;0.20;0.15;;;;;;;-6.52;57.76;100187.84;4984616;28;20051;-72
2023/03/13 03:23:17;;;;;;;0.82;0.47;;;;;;;-6.53;57.77;100182.72;4987623;28;20410;-76
2023/03/13 03:25:44;;;;;;;2.53;0.10;;;;;;;-6.56;57.59;100179.25;4981305;28;20896;-77
2023/03/13 03:28:10;;;;;;;0.15;0.10;;;;;;;-6.59;58.46;100179.13;4990279;28;20165;-77
2023/03/13 03:30:37;;;;;;;0.20;0.10;;;;;;;-6.58;57.85;100175.78;4988362;28;20046;-77
2023/03/13 03:33:06;;;;;;;0.28;0.10;;;;;;;-6.58;57.84;100180.00;4988747;28;20056;-77
2023/03/13 03:35:37;;;;;;;0.08;0.08;;;;;;;-6.61;58.48;100174.78;4986734;28;20274;-78
2023/03/13 03:38:04;;;;;;;0.10;0.10;;;;;;;-6.61;58.45;100175.66;4988570;28;20049;-78
2023/03/13 03:40:31;;;;;;;1.10;0.10;;;;;;;-6.73;58.22;100162.47;4984471;28;20046;-78
2023/03/13 03:42:58;;;;;;;0.10;0.10;;;;;;;-6.73;57.89;100164.13;4981050;28;20051;-78
2023/03/13 03:45:24;;;;;;;0.20;0.10;;;;;;;-6.65;58.02;100173.81;4982101;28;21561;-78
2023/03/13 03:47:51;;;;;;;2.15;0.10;;;;;;;-6.66;58.49;100171.19;4980839;28;20431;-77
2023/03/13 03:50:20;;;;;;;0.20;0.10;;;;;;;-6.65;58.13;100171.28;4988826;28;20043;-78
2023/03/13 03:52:46;;;;;;;0.15;0.10;;;;;;;-6.71;58.67;100160.00;4989216;28;20054;-77
2023/03/13 03:55:13;;;;;;;0.32;0.10;;;;;;;-6.65;58.08;100168.72;4983267;28;20069;-77
2023/03/13 03:57:40;;;;;;;1.33;0.20;;;;;;;-6.87;58.15;100135.63;4991394;28;20042;-77
2023/03/13 04:00:09;;;;;;;0.73;0.20;;;;;;;-6.69;57.98;100160.91;4990080;28;20050;-77
2023/03/13 04:02:36;;;;;;;2.35;0.15;;;;;;;-6.66;58.43;100176.28;4987973;28;20054;-77
2023/03/13 04:05:04;;;;;;;3.50;0.20;;;;;;;-6.81;58.96;100146.91;4988677;28;20054;-78
2023/03/13 04:07:32;;;;;;;0.50;0.10;;;;;;;-6.79;58.52;100141.91;4990204;28;20049;-78
2023/03/13 04:09:59;;;;;;;0.17;0.10;;;;;;;-6.70;58.51;100162.59;4993829;28;20048;-77
2023/03/13 04:12:26;;;;;;;0.43;0.10;;;;;;;-6.72;58.31;100159.09;4992485;28;20060;-77
2023/03/13 04:14:53;;;;;;;0.30;0.10;;;;;;;-6.72;58.48;100151.47;4993593;28;20043;-77
2023/03/13 04:17:20;;;;;;;0.20;0.10;;;;;;;-6.73;58.68;100144.69;4987031;28;20459;-78
2023/03/13 04:19:46;;;;;;;0.25;0.10;;;;;;;-6.74;58.70;100142.97;4984002;28;20053;-78
2023/03/13 04:22:13;;;;;;;0.25;0.10;;;;;;;-6.85;58.94;100118.81;4987356;28;20554;-77
2023/03/13 04:24:42;;;;;;;0.22;0.10;;;;;;;-6.77;58.89;100127.59;4991106;28;20387;-77
2023/03/13 04:27:09;;;;;;;0.17;0.10;;;;;;;-6.91;58.69;100094.03;4990349;28;20057;-78
2023/03/13 04:29:35;;;;;;;0.28;0.10;;;;;;;-6.79;58.98;100117.38;4991641;28;20050;-77
2023/03/13 04:32:02;;;;;;;0.32;0.10;;;;;;;-6.82;58.51;100098.59;4989398;28;20050;-77
2023/03/13 04:34:29;;;;;;;2.28;0.10;;;;;;;-6.77;58.31;100107.28;4986959;28;20074;-77
2023/03/13 04:36:56;;;;;;;0.20;0.10;;;;;;;-6.88;58.96;100083.13;4991450;28;20050;-77
2023/03/13 04:39:24;;;;;;;0.17;0.10;;;;;;;-6.89;58.87;100077.16;4992736;28;20057;-77
2023/03/13 04:41:53;;;;;;;1.27;0.20;;;;;;;-6.78;58.59;100092.84;4991106;28;20048;-77
2023/03/13 04:44:21;;;;;;;0.90;0.10;;;;;;;-6.78;58.93;100085.22;4993468;28;20050;-77
2023/03/13 04:46:48;;;;;;;0.17;0.10;;;;;;;-6.88;58.62;100065.34;4990121;28;20582;-77
2023/03/13 04:49:15;;;;;;;0.65;0.08;;;;;;;-6.81;58.48;100074.94;4991444;28;20501;-78
2023/03/13 04:51:43;;;;;;;3.75;0.25;;;;;;;-6.88;58.94;100055.19;4988925;28;20402;-77
2023/03/13 04:54:10;;;;;;;0.73;0.20;;;;;;;-6.95;58.76;100035.44;4989690;28;20503;-77
2023/03/13 04:56:37;;;;;;;1.08;0.10;;;;;;;-6.79;59.22;100068.25;4990196;28;20065;-77
2023/03/13 04:59:05;;;;;;;0.10;0.10;;;;;;;-6.80;59.49;100064.84;4988775;28;20042;-76
2023/03/13 05:01:32;;;;;;;3.13;0.10;;;;;;;-6.84;59.30;100062.13;4988060;28;20054;-77
2023/03/13 05:03:59;;;;;;;0.15;0.03;;;;;;;-6.80;58.72;100053.84;4981591;28;20043;-78
2023/03/13 05:06:26;;;;;;;0.20;0.20;;;;;;;-6.81;58.71;100059.69;4987537;28;20141;-77
2023/03/13 05:08:53;;;;;;;0.63;0.03;;;;;;;-6.84;59.58;100050.28;4991469;28;20502;-77
2023/03/13 05:11:20;;;;;;;0.20;0.10;;;;;;;-6.93;59.50;100037.22;4985542;28;20057;-77
2023/03/13 05:13:46;;;;;;;1.17;0.10;;;;;;;-6.85;59.19;100040.09;4989001;28;20130;-77
2023/03/13 05:16:15;;;;;;;0.63;0.08;;;;;;;-6.84;59.38;100037.59;4990650;28;20046;-77
2023/03/13 05:18:42;;;;;;;0.20;0.10;;;;;;;-6.82;59.13;100032.59;4988473;28;20042;-76
2023/03/13 05:21:09;;;;;;;0.32;0.10;;;;;;;-6.93;59.72;100005.91;4985648;28;20046;-77
2023/03/13 05:23:36;;;;;;;0.65;0.10;;;;;;;-6.81;59.55;100021.63;4988313;28;20046;-78
2023/03/13 05:26:03;;;;;;;0.38;0.10;;;;;;;-6.85;59.27;100005.41;4987252;28;20057;-76
2023/03/13 05:28:30;;;;;;;0.20;0.10;;;;;;;-6.90;59.20;100008.56;4987971;28;20043;-77
2023/03/13 05:30:57;;;;;;;1.73;0.10;;;;;;;-6.79;59.23;100030.16;4990375;28;20049;-77
2023/03/13 05:33:25;;;;;;;0.63;0.20;;;;;;;-6.76;59.36;100014.19;4990560;28;20053;-77
2023/03/13 05:35:52;;;;;;;0.17;0.10;;;;;;;-6.75;60.20;100011.69;4988086;28;20046;-77
2023/03/13 05:38:19;;;;;;;5.28;0.15;;;;;;;-6.75;59.61;100004.06;4988064;28;20043;-78
2023/03/13 05:40:46;;;;;;;0.20;0.10;;;;;;;-6.84;60.29;99989.34;4990614;28;20483;-76
2023/03/13 05:43:13;;;;;;;0.43;0.10;;;;;;;-6.70;60.15;100002.56;4987565;28;20054;-77
2023/03/13 05:45:40;;;;;;;0.25;0.10;;;;;;;-6.67;60.13;99997.59;4984901;28;20058;-77
2023/03/13 05:48:07;;;;;;;0.20;0.10;;;;;;;-6.64;60.43;99987.56;4986633;28;20049;-78
2023/03/13 05:50:35;;;;;;;2.67;0.10;;;;;;;-6.61;60.15;99974.13;4987690;28;20049;-77
2023/03/13 05:53:02;;;;;;;1.52;0.10;;;;;;;-6.68;60.72;99965.41;4988593;28;20042;-76
2023/03/13 05:55:29;;;;;;;0.32;0.17;;;;;;;-6.64;60.62;99966.38;4986082;28;20061;-76
2023/03/13 05:57:56;;;;;;;0.35;0.10;;;;;;;-6.53;61.05;99974.41;4988156;28;20046;-76
2023/03/13 06:00:23;;;;;;;0.50;0.20;;;;;;;-6.51;61.54;99967.72;4987648;28;20038;-77
2023/03/13 06:02:50;;;;;;;0.20;0.10;;;;;;;-6.46;61.84;99968.72;4985035;28;20137;-76
2023/03/13 06:05:17;;;;;;;0.43;0.20;;;;;;;-6.42;61.84;99963.81;4984640;28;20050;-77
2023/03/13 06:07:45;;;;;;;0.00;0.00;;;;;;;-6.35;61.89;99959.81;4984172;28;20042;-77
2023/03/13 06:10:12;;;;;;;4.68;0.20;;;;;;;-6.22;62.01;99972.16;4986482;28;20133;-78
2023/03/13 06:12:41;;;;;;;0.30;0.10;;;;;;;-6.14;62.13;99965.69;4989216;28;20046;-77
2023/03/13 06:15:09;;;;;;;0.30;0.10;;;;;;;-6.06;62.69;99958.34;4986915;28;20054;-78
2023/03/13 06:17:36;;;;;;;2.58;0.10;;;;;;;-6.03;62.93;99935.56;4986535;28;20062;-77
2023/03/13 06:20:04;;;;;;;0.30;0.05;;;;;;;-5.88;62.59;99948.75;4989793;28;20038;-77
2023/03/13 06:22:32;;;;;;;3.90;0.20;;;;;;;-5.74;62.78;99944.13;4986338;28;20046;-77
2023/03/13 06:25:00;;;;;;;3.50;0.22;;;;;;;-5.74;62.89;99923.78;4983323;28;20046;-77
2023/03/13 06:27:28;;;;;;;0.30;0.10;;;;;;;-5.55;63.06;99934.56;4987168;28;20506;-77
2023/03/13 06:29:55;;;;;;;1.25;0.13;;;;;;;-5.51;62.99;99924.53;4984899;28;20220;-77
2023/03/13 06:32:22;;;;;;;0.85;0.20;;;;;;;-5.36;62.96;99929.25;4990215;28;20053;-78
2023/03/13 06:34:49;;;;;;;2.50;0.10;;;;;;;-5.35;63.24;99914.84;4988785;28;20153;-77
2023/03/13 06:37:15;;;;;;;0.10;0.10;;;;;;;-5.25;63.72;99906.69;4988933;28;20058;-77
2023/03/13 06:39:42;;;;;;;1.17;0.10;;;;;;;-5.09;63.94;99913.97;4986643;28;20133;-77
2023/03/13 06:42:11;;;;;;;2.42;0.05;;;;;;;-4.94;63.70;99917.81;4987570;28;20046;-78
2023/03/13 06:44:38;;;;;;;2.10;0.10;;;;;;;-4.87;63.90;99912.91;4986178;28;20046;-75
2023/03/13 06:47:05;;;;;;;0.85;0.10;;;;;;;-4.79;64.51;99908.06;4984916;28;20050;-75
2023/03/13 06:49:32;;;;;;;1.98;0.10;;;;;;;-4.67;63.66;99910.09;4982558;28;20049;-75
2023/03/13 06:51:59;;;;;;;0.88;0.10;;;;;;;-4.65;64.12;99888.94;4980888;28;21027;-78
2023/03/13 06:54:26;;;;;;;0.68;0.10;;;;;;;-4.47;64.18;99893.66;4987951;28;20046;-78
2023/03/13 06:56:53;;;;;;;1.75;1.02;;;;;;;-4.38;63.96;99886.31;4988367;28;20053;-78
2023/03/13 06:59:21;;;;;;;1.35;0.10;;;;;;;-4.24;64.24;99878.13;4984374;28;20065;-76
2023/03/13 07:01:48;;;;;;;0.50;0.00;;;;;;;-4.15;64.39;99871.59;4984920;28;20053;-74
2023/03/13 07:04:15;;;;;;;0.10;0.10;;;;;;;-4.02;64.63;99860.03;4989771;28;20134;-75
2023/03/13 07:06:42;;;;;;;0.17;0.00;;;;;;;-3.92;64.12;99840.72;4985629;28;20098;-74
2023/03/13 07:09:10;;;;;;;0.28;0.10;;;;;;;-3.81;64.32;99830.75;4987015;28;20093;-75
2023/03/13 07:11:37;;;;;;;0.55;0.10;;;;;;;-3.71;64.06;99823.38;4980832;28;20051;-74
2023/03/13 07:14:04;;;;;;;0.00;0.00;;;;;;;-3.60;64.13;99815.09;4985281;28;20455;-74
2023/03/13 07:16:32;;;;;;;0.98;0.05;;;;;;;-3.49;64.48;99814.53;4982114;28;20054;-76
2023/03/13 07:18:59;;;;;;;2.30;0.95;;;;;;;-3.33;64.47;99823.41;4988503;28;20043;-77
2023/03/13 07:21:26;;;;;;;0.17;0.05;;;;;;;-3.23;64.73;99815.09;4986686;28;20053;-77
2023/03/13 07:23:53;;;;;;;0.10;0.10;;;;;;;-3.11;64.42;99804.25;4988685;28;20422;-77
2023/03/13 07:26:20;;;;;;;0.00;0.00;;;;;;;-2.99;64.45;99804.53;4985037;28;20145;-77
2023/03/13 07:28:47;;;;;;;1.02;0.03;;;;;;;-2.87;64.41;99798.81;4987809;28;20055;-78
2023/03/13 07:31:16;;;;;;;2.88;0.10;;;;;;;-2.73;64.51;99799.09;4981925;28;20042;-77
2023/03/13 07:33:45;;;;;;;0.10;0.08;;;;;;;-2.84;64.69;99752.00;4990439;28;20042;-78
2023/03/13 07:36:14;;;;;;;3.75;0.10;;;;;;;-2.53;64.54;99784.97;4990237;28;20046;-77
2023/03/13 07:38:42;;;;;;;0.35;0.03;;;;;;;-2.40;64.46;99777.53;4988563;28;20053;-77
2023/03/13 07:41:12;;;;;;;4.78;0.98;;;;;;;-2.30;64.20;99758.94;4992588;28;20054;-76
2023/03/13 07:43:39;;;;;;;0.10;0.08;;;;;;;-2.18;64.04;99766.81;4989618;28;20122;-76
2023/03/13 07:46:08;;;;;;;0.00;0.00;;;;;;;-2.09;64.19;99761.84;4986991;28;20055;-76
2023/03/13 07:48:37;;;;;;;1.38;0.10;;;;;;;-1.95;63.99;99764.63;4987976;28;20065;-74
2023/03/13 07:51:06;;;;;;;2.70;0.10;;;;;;;-1.82;64.30;99752.91;4989876;28;20129;-75
2023/03/13 07:53:34;;;;;;;0.20;0.10;;;;;;;-1.72;63.88;99752.19;4988676;28;20042;-75
2023/03/13 07:56:02;;;;;;;0.10;0.00;;;;;;;-1.61;63.79;99742.97;4989469;28;20054;-75
2023/03/13 07:58:31;;;;;;;0.98;0.40;;;;;;;-1.50;64.09;99732.00;4991095;28;20054;-74
2023/03/13 08:00:58;;;;;;;0.50;0.10;;;;;;;-1.39;63.83;99721.06;4990850;28;20054;-74
2023/03/13 08:03:25;;;;;;;3.92;0.55;;;;;;;-1.30;63.26;99702.38;4986887;28;20156;-75
2023/03/13 08:05:59;;;;;;;0.75;0.10;;;;;;;-1.21;63.60;99702.47;4989644;28;20056;-75
2023/03/13 08:08:28;;;;;;;1.20;0.20;;;;;;;-1.10;63.30;99687.25;4989650;28;20054;-75
2023/03/13 08:10:59;;;;;;;0.57;0.28;;;;;;;-1.01;62.81;99682.22;4989244;28;20132;-75
2023/03/13 08:13:26;;;;;;;4.20;0.10;;;;;;;-0.91;63.23;99680.63;4987457;28;20050;-78
2023/03/13 08:16:01;;;;;;;0.20;0.10;;;;;;;-0.86;63.34;99657.56;4989996;28;20057;-74
2023/03/13 08:18:27;;;;;;;0.10;0.10;;;;;;;-0.72;63.06;99672.22;4986715;28;20733;-75
2023/03/13 08:20:54;;;;;;;0.00;0.00;;;;;;;-0.64;62.79;99661.19;4988891;28;20741;-76
2023/03/13 08:23:21;;;;;;;0.15;0.05;;;;;;;-0.57;63.47;99657.81;4988546;28;20057;-74
2023/03/13 08:25:49;;;;;;;5.10;0.10;;;;;;;-0.49;63.52;99651.91;4987276;28;20050;-74
2023/03/13 08:28:16;;;;;;;1.00;0.10;;;;;;;-0.42;63.14;99660.53;4991692;28;20491;-74
2023/03/13 08:30:43;;;;;;;2.25;0.10;;;;;;;-0.35;63.25;99664.84;4987767;28;20050;-72
2023/03/13 08:33:10;;;;;;;2.95;0.20;;;;;;;-0.30;63.71;99645.22;4990779;28;20046;-73
2023/03/13 08:35:37;;;;;;;4.57;0.55;;;;;;;-0.22;63.50;99647.00;4987256;28;20053;-75
2023/03/13 08:38:05;;;;;;;2.55;0.93;;;;;;;-0.16;64.27;99641.91;4989668;28;20145;-74
2023/03/13 08:40:32;;;;;;;0.30;0.08;;;;;;;-0.12;65.14;99626.53;4989149;28;20054;-75
2023/03/13 08:43:00;;;;;;;1.77;0.10;;;;;;;-0.11;64.21;99615.44;4986928;28;20046;-74
2023/03/13 08:45:27;;;;;;;1.40;0.10;;;;;;;-0.07;65.27;99606.03;4990985;28;20423;-74
2023/03/13 08:47:54;;;;;;;3.40;0.10;;;;;;;0.02;65.48;99626.59;4984752;28;20494;-74
2023/03/13 08:50:21;;;;;;;2.97;0.10;;;;;;;0.05;64.73;99608.66;4988404;28;20513;-75
2023/03/13 08:52:48;;;;;;;0.75;0.00;;;;;;;0.10;65.31;99604.41;4987617;28;20046;-75
2023/03/13 08:55:15;;;;;;;5.38;0.30;;;;;;;0.15;65.73;99602.72;4987262;28;20169;-74
2023/03/13 08:57:41;;;;;;;2.17;0.10;;;;;;;0.16;66.23;99591.59;4987200;28;20407;-76
2023/03/13 09:00:13;;;;;;;2.45;0.40;;;;;;;0.21;66.38;99589.06;4982316;28;20057;-74
2023/03/13 09:02:40;;;;;;;1.55;0.10;;;;;;;0.25;66.66;99583.06;4987707;28;20047;-74
2023/03/13 09:05:08;;;;;;;1.40;0.20;;;;;;;0.28;67.38;99571.94;4984494;28;20058;-73
2023/03/13 09:07:35;;;;;;;2.65;0.65;;;;;;;0.33;67.31;99567.69;4987257;28;20042;-73
2023/03/13 09:10:02;;;;;;;6.72;0.10;;;;;;;0.33;67.19;99548.00;4987904;28;20047;-73
2023/03/13 09:12:30;;;;;;;7.10;0.25;;;;;;;0.38;67.32;99541.16;4990350;28;20169;-73
2023/03/13 09:14:57;;;;;;;0.88;0.10;;;;;;;0.41;67.74;99538.59;4984798;28;20058;-74
2023/03/13 09:17:26;;;;;;;2.65;1.30;;;;;;;0.43;67.94;99528.34;4990218;28;20060;-73
2023/03/13 09:19:52;;;;;;;5.28;0.50;;;;;;;0.47;67.93;99512.06;4988064;28;20097;-74
2023/03/13 09:22:19;;;;;;;0.77;0.13;;;;;;;0.49;68.65;99507.81;4988653;28;20514;-68
2023/03/13 09:24:46;;;;;;;3.80;0.32;;;;;;;0.49;68.97;99481.25;4989272;28;20505;-70
2023/03/13 09:27:13;;;;;;;2.85;0.10;;;;;;;0.57;68.47;99494.94;4981089;28;20054;-70
2023/03/13 09:29:41;;;;;;;3.75;0.20;;;;;;;0.60;69.15;99489.84;4989213;28;20503;-68
2023/03/13 09:32:10;;;;;;;2.10;0.13;;;;;;;0.60;69.25;99475.28;4982325;28;20089;-69
2023/03/13 09:34:38;;;;;;;4.05;0.20;;;;;;;0.64;70.14;99461.56;4988182;28;20054;-68
2023/03/13 09:37:05;;;;;;;2.63;0.20;;;;;;;0.66;70.05;99453.88;4986154;28;20042;-70
2023/03/13 09:39:32;;;;;;;1.02;0.30;;;;;;;0.70;70.03;99453.00;4985727;28;20042;-70
2023/03/13 09:42:08;;;;;;;3.40;0.10;;;;;;;0.72;69.30;99438.44;4984850;28;20079;-69
2023/03/13 09:44:40;;;;;;;5.80;0.40;;;;;;;0.76;69.95;99435.00;4986247;28;20066;-72
2023/03/13 09:47:16;;;;;;;1.92;0.13;;;;;;;0.78;70.46;99432.44;4987646;28;20499;-69
2023/03/13 09:49:50;;;;;;;1.55;0.00;;;;;;;0.80;70.40;99416.16;4985019;28;20801;-70
2023/03/13 09:52:18;;;;;;;1.17;0.25;;;;;;;0.83;70.50;99408.44;4985256;28;20061;-69
2023/03/13 09:54:51;;;;;;;0.95;0.10;;;;;;;0.87;71.00;99402.44;4984130;28;20415;-70
2023/03/13 09:57:24;;;;;;;0.80;0.22;;;;;;;0.93;70.46;99396.41;4978635;28;20829;-71
2023/03/13 09:59:55;;;;;;;2.72;0.30;;;;;;;0.97;70.69;99384.41;4983458;28;20043;-69
2023/03/13 10:02:28;;;;;;;2.30;0.10;;;;;;;1.00;70.39;99376.72;4973752;28;20046;-69
2023/03/13 10:05:04;;;;;;;1.75;0.10;;;;;;;1.02;70.44;99360.41;4977648;28;20043;-69
2023/03/13 10:07:30;;;;;;;2.60;0.20;;;;;;;1.04;71.33;99358.69;4965040;28;20042;-70
2023/03/13 10:09:59;;;;;;;2.55;0.45;;;;;;;1.07;70.70;99348.38;4979018;28;20054;-70
2023/03/13 10:12:29;;;;;;;1.00;0.10;;;;;;;1.09;71.63;99345.81;4974594;28;20042;-70
2023/03/13 10:15:17;;;;;;;2.50;0.30;;;;;;;1.11;71.12;99342.41;4977675;28;20043;-69
2023/03/13 10:17:45;;;;;;;0.20;0.10;;;;;;;1.13;71.40;99332.09;4986648;28;20450;-70
2023/03/13 10:20:23;;;;;;;1.27;0.35;;;;;;;1.16;71.47;99331.22;4980644;28;20057;-70
2023/03/13 10:22:54;;;;;;;1.65;0.20;;;;;;;1.19;71.80;99326.06;4983538;28;20458;-70
2023/03/13 10:25:28;;;;;;;2.00;0.20;;;;;;;1.20;71.10;99317.50;4984791;28;20065;-70
2023/03/13 10:27:55;;;;;;;2.08;0.10;;;;;;;1.24;71.15;99314.06;4983110;28;20047;-70
2023/03/13 10:30:24;;;;;;;0.40;0.13;;;;;;;1.24;71.42;99309.75;4979452;28;20046;-70
2023/03/13 10:32:54;;;;;;;1.27;0.25;;;;;;;1.26;71.96;99291.75;4976103;28;20490;-70
2023/03/13 10:35:25;;;;;;;2.67;0.30;;;;;;;1.27;71.72;99298.59;4980423;28;20096;-70
2023/03/13 10:38:02;;;;;;;3.47;0.30;;;;;;;1.27;71.33;99283.16;4972104;28;20050;-70
2023/03/13 10:40:29;;;;;;;0.57;0.20;;;;;;;1.30;71.43;99275.44;4974348;28;20042;-70
2023/03/13 10:43:02;;;;;;;2.38;0.20;;;;;;;1.31;71.09;99266.88;4972450;28;20426;-70
2023/03/13 10:45:34;;;;;;;0.65;0.10;;;;;;;1.31;71.55;99254.84;4984221;28;20419;-70
2023/03/13 10:48:11;;;;;;;1.65;0.13;;;;;;;1.33;72.24;99247.13;4978376;28;20139;-70
2023/03/13 10:50:42;;;;;;;1.02;0.15;;;;;;;1.33;71.67;99237.66;4990758;28;20058;-70
2023/03/13 10:53:22;;;;;;;0.88;0.17;;;;;;;1.36;71.76;99234.22;4974930;28;20046;-70
2023/03/13 10:55:52;;;;;;;2.10;0.13;;;;;;;1.37;71.07;99225.66;4977748;28;20396;-70
2023/03/13 10:58:23;;;;;;;0.30;0.15;;;;;;;1.37;71.33;99212.81;4983138;28;20057;-70
2023/03/13 11:00:50;;;;;;;0.70;0.20;;;;;;;1.38;71.36;99209.34;4979075;28;20061;-70
2023/03/13 11:03:20;;;;;;;3.13;0.30;;;;;;;1.38;71.84;99203.38;4983046;28;20434;-70
2023/03/13 11:05:57;;;;;;;0.90;0.30;;;;;;;1.40;72.15;99183.63;4977885;28;20054;-70
2023/03/13 11:08:26;;;;;;;0.28;0.10;;;;;;;1.40;71.34;99169.03;4988818;28;20050;-70
2023/03/13 11:10:56;;;;;;;0.30;0.10;;;;;;;1.41;71.30;99163.03;4991438;28;20131;-70
2023/03/13 11:13:35;;;;;;;0.55;0.30;;;;;;;1.41;71.60;99147.59;4978418;28;20717;-70
2023/03/13 11:16:12;;;;;;;2.88;0.20;;;;;;;1.43;71.54;99140.72;4981233;28;20109;-70
2023/03/13 11:18:44;;;;;;;4.15;0.35;;;;;;;1.43;72.07;99138.16;4982986;28;20076;-70
2023/03/13 11:21:23;;;;;;;0.10;0.10;;;;;;;1.42;71.99;99110.69;4977056;28;20741;-71
2023/03/13 11:23:56;;;;;;;0.47;0.22;;;;;;;1.43;72.20;99102.13;4987479;28;20043;-71
2023/03/13 11:26:35;;;;;;;0.63;0.20;;;;;;;1.44;72.62;99102.97;4986277;28;20494;-70
2023/03/13 11:29:10;;;;;;;1.95;0.30;;;;;;;1.42;72.61;99082.38;4986934;28;20061;-71
2023/03/13 11:31:41;;;;;;;0.35;0.20;;;;;;;1.45;72.61;99102.97;4980962;28;20505;-71
2023/03/13 11:34:20;;;;;;;0.30;0.20;;;;;;;1.46;72.60;99096.09;4970770;28;20986;-70
2023/03/13 11:36:54;;;;;;;0.30;0.10;;;;;;;1.46;72.48;99084.09;4987272;28;20042;-70
2023/03/13 11:39:42;;;;;;;0.00;0.00;;;;;;;1.49;72.75;99078.91;4969323;28;20091;-70